sensor_id;sensor_type;location;lat;lon;timestamp;P1;durP1;ratioP1;P2;durP2;ratioP2
56285;SDS011;42191;47.562;9.686;2023-05-10T00:00:42;33.05;;;31.10;;
56285;SDS011;42191;47.562;9.686;2023-05-10T00:03:08;33.90;;;31.90;;
56285;SDS011;42191;47.562;9.686;2023-05-10T00:05:34;33.33;;;31.33;;
56285;SDS011;42191;47.562;9.686;2023-05-10T00:08:00;33.92;;;31.92;;
56285;SDS011;42191;47.562;9.686;2023-05-10T00:10:26;34.78;;;32.72;;
56285;SDS011;42191;47.562;9.686;2023-05-10T00:12:52;33.47;;;31.48;;
56285;SDS011;42191;47.562;9.686;2023-05-10T00:15:18;31.75;;;29.88;;
56285;SDS011;42191;47.562;9.686;2023-05-10T00:17:44;32.78;;;30.88;;
56285;SDS011;42191;47.562;9.686;2023-05-10T00:20:10;33.17;;;31.27;;
56285;SDS011;42191;47.562;9.686;2023-05-10T00:22:37;33.70;;;31.77;;
56285;SDS011;42191;47.562;9.686;2023-05-10T00:25:03;32.03;;;30.13;;
56285;SDS011;42191;47.562;9.686;2023-05-10T00:27:29;34.45;;;32.42;;
56285;SDS011;42191;47.562;9.686;2023-05-10T00:29:55;34.22;;;32.22;;
56285;SDS011;42191;47.562;9.686;2023-05-10T00:32:21;32.75;;;30.85;;
56285;SDS011;42191;47.562;9.686;2023-05-10T00:34:48;33.13;;;31.23;;
56285;SDS011;42191;47.562;9.686;2023-05-10T00:37:14;35.03;;;33.03;;
56285;SDS011;42191;47.562;9.686;2023-05-10T00:39:40;34.00;;;31.88;;
56285;SDS011;42191;47.562;9.686;2023-05-10T00:42:06;33.28;;;31.30;;
56285;SDS011;42191;47.562;9.686;2023-05-10T00:44:32;32.97;;;31.02;;
56285;SDS011;42191;47.562;9.686;2023-05-10T00:46:58;33.95;;;31.98;;
56285;SDS011;42191;47.562;9.686;2023-05-10T00:49:25;31.77;;;29.92;;
56285;SDS011;42191;47.562;9.686;2023-05-10T00:51:51;32.83;;;30.92;;
56285;SDS011;42191;47.562;9.686;2023-05-10T00:54:17;33.78;;;31.85;;
56285;SDS011;42191;47.562;9.686;2023-05-10T00:56:44;34.75;;;32.53;;
56285;SDS011;42191;47.562;9.686;2023-05-10T00:59:14;33.67;;;31.75;;
56285;SDS011;42191;47.562;9.686;2023-05-10T01:01:41;33.50;;;31.50;;
56285;SDS011;42191;47.562;9.686;2023-05-10T01:04:08;35.35;;;33.25;;
56285;SDS011;42191;47.562;9.686;2023-05-10T01:06:37;35.40;;;33.40;;
56285;SDS011;42191;47.562;9.686;2023-05-10T01:09:04;33.17;;;31.08;;
56285;SDS011;42191;47.562;9.686;2023-05-10T01:11:32;33.38;;;31.38;;
56285;SDS011;42191;47.562;9.686;2023-05-10T01:14:00;33.80;;;31.80;;
56285;SDS011;42191;47.562;9.686;2023-05-10T01:16:27;35.65;;;33.55;;
56285;SDS011;42191;47.562;9.686;2023-05-10T01:18:54;34.90;;;32.90;;
56285;SDS011;42191;47.562;9.686;2023-05-10T01:21:28;32.65;;;30.75;;
56285;SDS011;42191;47.562;9.686;2023-05-10T01:32:01;35.15;;;33.08;;
56285;SDS011;42191;47.562;9.686;2023-05-10T01:37:52;32.13;;;30.23;;
56285;SDS011;42191;47.562;9.686;2023-05-10T01:43:08;35.42;;;33.33;;
56285;SDS011;42191;47.562;9.686;2023-05-10T01:45:58;36.30;;;34.13;;
56285;SDS011;42191;47.562;9.686;2023-05-10T01:48:35;35.13;;;32.90;;
56285;SDS011;42191;47.562;9.686;2023-05-10T01:51:05;34.25;;;32.17;;
56285;SDS011;42191;47.562;9.686;2023-05-10T01:53:33;34.05;;;32.05;;
56285;SDS011;42191;47.562;9.686;2023-05-10T01:56:02;33.70;;;31.70;;
56285;SDS011;42191;47.562;9.686;2023-05-10T01:58:30;35.75;;;33.65;;
56285;SDS011;42191;47.562;9.686;2023-05-10T02:00:59;36.33;;;34.15;;
56285;SDS011;42191;47.562;9.686;2023-05-10T02:03:28;33.35;;;31.38;;
56285;SDS011;42191;47.562;9.686;2023-05-10T02:05:57;35.38;;;32.72;;
56285;SDS011;42191;47.562;9.686;2023-05-10T02:08:24;34.65;;;32.65;;
56285;SDS011;42191;47.562;9.686;2023-05-10T02:10:52;32.28;;;30.38;;
56285;SDS011;42191;47.562;9.686;2023-05-10T02:13:19;34.75;;;32.65;;
56285;SDS011;42191;47.562;9.686;2023-05-10T02:15:48;34.70;;;32.70;;
56285;SDS011;42191;47.562;9.686;2023-05-10T02:18:15;34.35;;;32.35;;
56285;SDS011;42191;47.562;9.686;2023-05-10T02:20:43;34.92;;;32.90;;
56285;SDS011;42191;47.562;9.686;2023-05-10T02:23:11;34.80;;;32.63;;
56285;SDS011;42191;47.562;9.686;2023-05-10T02:25:38;33.53;;;31.58;;
56285;SDS011;42191;47.562;9.686;2023-05-10T02:28:05;35.03;;;32.97;;
56285;SDS011;42191;47.562;9.686;2023-05-10T02:30:33;33.40;;;31.50;;
56285;SDS011;42191;47.562;9.686;2023-05-10T02:33:00;35.25;;;33.15;;
56285;SDS011;42191;47.562;9.686;2023-05-10T02:35:28;32.55;;;30.65;;
56285;SDS011;42191;47.562;9.686;2023-05-10T02:37:56;35.33;;;32.92;;
56285;SDS011;42191;47.562;9.686;2023-05-10T02:40:23;33.40;;;31.50;;
56285;SDS011;42191;47.562;9.686;2023-05-10T02:42:50;33.40;;;31.50;;
56285;SDS011;42191;47.562;9.686;2023-05-10T02:45:20;36.55;;;34.35;;
56285;SDS011;42191;47.562;9.686;2023-05-10T02:47:51;33.95;;;31.95;;
56285;SDS011;42191;47.562;9.686;2023-05-10T02:50:17;32.95;;;30.95;;
56285;SDS011;42191;47.562;9.686;2023-05-10T02:52:46;34.45;;;32.45;;
56285;SDS011;42191;47.562;9.686;2023-05-10T02:55:16;33.88;;;31.90;;
56285;SDS011;42191;47.562;9.686;2023-05-10T02:57:57;34.50;;;32.35;;
56285;SDS011;42191;47.562;9.686;2023-05-10T03:00:25;36.22;;;34.13;;
56285;SDS011;42191;47.562;9.686;2023-05-10T03:02:51;34.03;;;32.03;;
56285;SDS011;42191;47.562;9.686;2023-05-10T03:05:18;34.67;;;32.67;;
56285;SDS011;42191;47.562;9.686;2023-05-10T03:07:45;33.40;;;31.48;;
56285;SDS011;42191;47.562;9.686;2023-05-10T03:10:12;32.88;;;30.90;;
56285;SDS011;42191;47.562;9.686;2023-05-10T03:21:28;33.60;;;31.70;;
56285;SDS011;42191;47.562;9.686;2023-05-10T03:23:58;35.20;;;33.10;;
56285;SDS011;42191;47.562;9.686;2023-05-10T03:26:30;35.28;;;33.22;;
56285;SDS011;42191;47.562;9.686;2023-05-10T03:28:56;36.20;;;34.00;;
56285;SDS011;42191;47.562;9.686;2023-05-10T03:31:24;33.70;;;31.67;;
56285;SDS011;42191;47.562;9.686;2023-05-10T03:33:51;34.35;;;32.35;;
56285;SDS011;42191;47.562;9.686;2023-05-10T03:36:18;33.28;;;31.33;;
56285;SDS011;42191;47.562;9.686;2023-05-10T03:38:44;34.85;;;32.85;;
56285;SDS011;42191;47.562;9.686;2023-05-10T03:41:10;34.03;;;32.03;;
56285;SDS011;42191;47.562;9.686;2023-05-10T03:43:36;34.80;;;32.80;;
56285;SDS011;42191;47.562;9.686;2023-05-10T03:46:03;34.42;;;32.42;;
56285;SDS011;42191;47.562;9.686;2023-05-10T03:48:30;34.17;;;32.17;;
56285;SDS011;42191;47.562;9.686;2023-05-10T03:50:59;35.90;;;33.72;;
56285;SDS011;42191;47.562;9.686;2023-05-10T03:53:25;33.97;;;31.98;;
56285;SDS011;42191;47.562;9.686;2023-05-10T03:55:51;33.25;;;31.35;;
56285;SDS011;42191;47.562;9.686;2023-05-10T03:58:18;34.60;;;32.58;;
56285;SDS011;42191;47.562;9.686;2023-05-10T04:00:44;34.67;;;32.63;;
56285;SDS011;42191;47.562;9.686;2023-05-10T04:03:11;35.50;;;33.40;;
56285;SDS011;42191;47.562;9.686;2023-05-10T04:05:37;33.58;;;31.65;;
56285;SDS011;42191;47.562;9.686;2023-05-10T04:08:03;34.17;;;32.17;;
56285;SDS011;42191;47.562;9.686;2023-05-10T04:10:30;34.03;;;32.03;;
56285;SDS011;42191;47.562;9.686;2023-05-10T04:12:56;35.65;;;33.55;;
56285;SDS011;42191;47.562;9.686;2023-05-10T04:15:22;35.70;;;33.60;;
56285;SDS011;42191;47.562;9.686;2023-05-10T04:17:48;36.10;;;33.67;;
56285;SDS011;42191;47.562;9.686;2023-05-10T04:20:15;34.58;;;32.58;;
56285;SDS011;42191;47.562;9.686;2023-05-10T04:22:41;34.63;;;32.63;;
56285;SDS011;42191;47.562;9.686;2023-05-10T04:25:07;35.90;;;33.80;;
56285;SDS011;42191;47.562;9.686;2023-05-10T04:27:34;35.20;;;33.17;;
56285;SDS011;42191;47.562;9.686;2023-05-10T04:30:00;33.83;;;31.83;;
56285;SDS011;42191;47.562;9.686;2023-05-10T04:32:27;34.45;;;32.45;;
56285;SDS011;42191;47.562;9.686;2023-05-10T04:34:53;33.75;;;31.75;;
56285;SDS011;42191;47.562;9.686;2023-05-10T04:37:19;34.20;;;32.20;;
56285;SDS011;42191;47.562;9.686;2023-05-10T04:39:46;34.40;;;32.30;;
56285;SDS011;42191;47.562;9.686;2023-05-10T04:42:12;33.95;;;31.95;;
56285;SDS011;42191;47.562;9.686;2023-05-10T04:44:39;33.03;;;31.13;;
56285;SDS011;42191;47.562;9.686;2023-05-10T04:47:06;34.92;;;32.83;;
56285;SDS011;42191;47.562;9.686;2023-05-10T04:49:32;32.30;;;30.40;;
56285;SDS011;42191;47.562;9.686;2023-05-10T04:51:58;32.70;;;30.77;;
56285;SDS011;42191;47.562;9.686;2023-05-10T04:54:24;34.72;;;32.65;;
56285;SDS011;42191;47.562;9.686;2023-05-10T04:56:50;34.63;;;32.60;;
56285;SDS011;42191;47.562;9.686;2023-05-10T04:59:16;38.10;;;35.60;;
56285;SDS011;42191;47.562;9.686;2023-05-10T05:01:43;36.97;;;34.58;;
56285;SDS011;42191;47.562;9.686;2023-05-10T05:04:09;36.15;;;33.85;;
56285;SDS011;42191;47.562;9.686;2023-05-10T05:06:35;34.78;;;32.65;;
56285;SDS011;42191;47.562;9.686;2023-05-10T05:09:02;36.50;;;34.13;;
56285;SDS011;42191;47.562;9.686;2023-05-10T05:11:28;35.95;;;33.65;;
56285;SDS011;42191;47.562;9.686;2023-05-10T05:13:54;35.10;;;32.90;;
56285;SDS011;42191;47.562;9.686;2023-05-10T05:16:20;34.03;;;31.83;;
56285;SDS011;42191;47.562;9.686;2023-05-10T05:18:46;34.40;;;32.40;;
56285;SDS011;42191;47.562;9.686;2023-05-10T05:21:15;34.33;;;32.22;;
56285;SDS011;42191;47.562;9.686;2023-05-10T05:23:42;33.83;;;31.75;;
56285;SDS011;42191;47.562;9.686;2023-05-10T05:26:08;34.33;;;32.22;;
56285;SDS011;42191;47.562;9.686;2023-05-10T05:28:35;34.95;;;32.78;;
56285;SDS011;42191;47.562;9.686;2023-05-10T05:31:02;34.13;;;31.92;;
56285;SDS011;42191;47.562;9.686;2023-05-10T05:33:35;37.75;;;34.95;;
56285;SDS011;42191;47.562;9.686;2023-05-10T05:36:02;38.53;;;35.63;;
56285;SDS011;42191;47.562;9.686;2023-05-10T05:38:28;35.67;;;33.28;;
56285;SDS011;42191;47.562;9.686;2023-05-10T05:40:55;35.88;;;33.33;;
56285;SDS011;42191;47.562;9.686;2023-05-10T05:43:21;37.50;;;34.95;;
56285;SDS011;42191;47.562;9.686;2023-05-10T05:45:47;36.10;;;33.80;;
56285;SDS011;42191;47.562;9.686;2023-05-10T05:48:13;35.03;;;32.92;;
56285;SDS011;42191;47.562;9.686;2023-05-10T05:50:40;33.35;;;31.35;;
56285;SDS011;42191;47.562;9.686;2023-05-10T05:53:06;35.47;;;33.38;;
56285;SDS011;42191;47.562;9.686;2023-05-10T05:55:32;32.08;;;30.17;;
56285;SDS011;42191;47.562;9.686;2023-05-10T05:57:59;32.85;;;30.90;;
56285;SDS011;42191;47.562;9.686;2023-05-10T06:00:25;34.13;;;31.92;;
56285;SDS011;42191;47.562;9.686;2023-05-10T06:02:51;34.90;;;32.85;;
56285;SDS011;42191;47.562;9.686;2023-05-10T06:05:17;34.22;;;32.22;;
56285;SDS011;42191;47.562;9.686;2023-05-10T06:07:43;34.03;;;32.03;;
56285;SDS011;42191;47.562;9.686;2023-05-10T06:10:10;34.17;;;32.17;;
56285;SDS011;42191;47.562;9.686;2023-05-10T06:12:36;34.22;;;32.22;;
56285;SDS011;42191;47.562;9.686;2023-05-10T06:15:02;34.33;;;32.22;;
56285;SDS011;42191;47.562;9.686;2023-05-10T06:17:29;34.03;;;32.03;;
56285;SDS011;42191;47.562;9.686;2023-05-10T06:19:55;34.60;;;32.40;;
56285;SDS011;42191;47.562;9.686;2023-05-10T06:22:21;33.28;;;31.17;;
56285;SDS011;42191;47.562;9.686;2023-05-10T06:24:48;33.92;;;31.83;;
56285;SDS011;42191;47.562;9.686;2023-05-10T06:27:14;33.38;;;31.42;;
56285;SDS011;42191;47.562;9.686;2023-05-10T06:29:40;35.45;;;33.28;;
56285;SDS011;42191;47.562;9.686;2023-05-10T06:32:06;33.85;;;31.83;;
56285;SDS011;42191;47.562;9.686;2023-05-10T06:34:33;32.28;;;30.38;;
56285;SDS011;42191;47.562;9.686;2023-05-10T06:36:59;34.65;;;32.63;;
56285;SDS011;42191;47.562;9.686;2023-05-10T06:39:25;34.53;;;32.45;;
56285;SDS011;42191;47.562;9.686;2023-05-10T06:41:51;35.15;;;33.05;;
56285;SDS011;42191;47.562;9.686;2023-05-10T06:44:17;34.30;;;32.15;;
56285;SDS011;42191;47.562;9.686;2023-05-10T06:46:43;33.85;;;31.85;;
56285;SDS011;42191;47.562;9.686;2023-05-10T06:49:09;35.15;;;32.83;;
56285;SDS011;42191;47.562;9.686;2023-05-10T06:51:35;34.08;;;32.08;;
56285;SDS011;42191;47.562;9.686;2023-05-10T06:54:01;35.80;;;33.60;;
56285;SDS011;42191;47.562;9.686;2023-05-10T06:56:28;34.70;;;32.60;;
56285;SDS011;42191;47.562;9.686;2023-05-10T06:58:54;34.22;;;32.13;;
56285;SDS011;42191;47.562;9.686;2023-05-10T07:01:20;34.03;;;32.03;;
56285;SDS011;42191;47.562;9.686;2023-05-10T07:03:46;31.92;;;30.02;;
56285;SDS011;42191;47.562;9.686;2023-05-10T07:06:12;34.25;;;32.20;;
56285;SDS011;42191;47.562;9.686;2023-05-10T07:08:38;33.83;;;31.83;;
56285;SDS011;42191;47.562;9.686;2023-05-10T07:11:05;34.83;;;32.72;;
56285;SDS011;42191;47.562;9.686;2023-05-10T07:13:32;34.45;;;32.35;;
56285;SDS011;42191;47.562;9.686;2023-05-10T07:15:59;34.33;;;32.22;;
56285;SDS011;42191;47.562;9.686;2023-05-10T07:18:26;34.50;;;32.50;;
56285;SDS011;42191;47.562;9.686;2023-05-10T07:20:53;34.78;;;32.75;;
56285;SDS011;42191;47.562;9.686;2023-05-10T07:23:19;33.88;;;31.77;;
56285;SDS011;42191;47.562;9.686;2023-05-10T07:25:48;33.30;;;31.27;;
56285;SDS011;42191;47.562;9.686;2023-05-10T07:28:16;36.58;;;34.47;;
56285;SDS011;42191;47.562;9.686;2023-05-10T07:30:42;34.10;;;32.08;;
56285;SDS011;42191;47.562;9.686;2023-05-10T07:33:09;32.95;;;30.95;;
56285;SDS011;42191;47.562;9.686;2023-05-10T07:35:37;34.90;;;32.60;;
56285;SDS011;42191;47.562;9.686;2023-05-10T07:38:04;36.10;;;33.92;;
56285;SDS011;42191;47.562;9.686;2023-05-10T07:40:31;35.13;;;33.03;;
56285;SDS011;42191;47.562;9.686;2023-05-10T07:42:57;35.50;;;33.40;;
56285;SDS011;42191;47.562;9.686;2023-05-10T07:45:24;35.35;;;33.25;;
56285;SDS011;42191;47.562;9.686;2023-05-10T07:47:50;34.78;;;32.78;;
56285;SDS011;42191;47.562;9.686;2023-05-10T07:50:16;35.80;;;33.58;;
56285;SDS011;42191;47.562;9.686;2023-05-10T07:52:43;37.45;;;35.05;;
56285;SDS011;42191;47.562;9.686;2023-05-10T07:55:09;36.85;;;34.35;;
56285;SDS011;42191;47.562;9.686;2023-05-10T07:57:35;38.50;;;35.92;;
56285;SDS011;42191;47.562;9.686;2023-05-10T08:00:02;39.63;;;36.92;;
56285;SDS011;42191;47.562;9.686;2023-05-10T08:02:29;38.50;;;36.08;;
56285;SDS011;42191;47.562;9.686;2023-05-10T08:04:55;35.60;;;33.42;;
56285;SDS011;42191;47.562;9.686;2023-05-10T08:07:22;35.22;;;33.10;;
56285;SDS011;42191;47.562;9.686;2023-05-10T08:09:49;34.92;;;32.78;;
56285;SDS011;42191;47.562;9.686;2023-05-10T08:12:15;35.25;;;33.15;;
56285;SDS011;42191;47.562;9.686;2023-05-10T08:14:42;34.35;;;32.20;;
56285;SDS011;42191;47.562;9.686;2023-05-10T08:17:08;33.38;;;31.38;;
56285;SDS011;42191;47.562;9.686;2023-05-10T08:19:34;34.95;;;32.72;;
56285;SDS011;42191;47.562;9.686;2023-05-10T08:22:00;34.15;;;32.13;;
56285;SDS011;42191;47.562;9.686;2023-05-10T08:24:26;34.58;;;32.38;;
56285;SDS011;42191;47.562;9.686;2023-05-10T08:26:52;32.40;;;30.30;;
56285;SDS011;42191;47.562;9.686;2023-05-10T08:29:19;36.63;;;34.33;;
56285;SDS011;42191;47.562;9.686;2023-05-10T08:31:45;33.70;;;31.55;;
56285;SDS011;42191;47.562;9.686;2023-05-10T08:34:11;38.55;;;35.75;;
56285;SDS011;42191;47.562;9.686;2023-05-10T08:36:37;36.38;;;33.78;;
56285;SDS011;42191;47.562;9.686;2023-05-10T08:39:03;41.97;;;38.67;;
56285;SDS011;42191;47.562;9.686;2023-05-10T08:41:29;41.28;;;38.40;;
56285;SDS011;42191;47.562;9.686;2023-05-10T08:43:58;36.85;;;34.35;;
56285;SDS011;42191;47.562;9.686;2023-05-10T08:46:27;35.95;;;33.75;;
56285;SDS011;42191;47.562;9.686;2023-05-10T08:48:55;33.08;;;30.98;;
56285;SDS011;42191;47.562;9.686;2023-05-10T08:51:25;35.10;;;32.90;;
56285;SDS011;42191;47.562;9.686;2023-05-10T08:53:54;35.15;;;32.95;;
56285;SDS011;42191;47.562;9.686;2023-05-10T08:56:21;34.45;;;32.05;;
56285;SDS011;42191;47.562;9.686;2023-05-10T08:58:47;36.35;;;33.78;;
56285;SDS011;42191;47.562;9.686;2023-05-10T09:01:14;35.35;;;32.92;;
56285;SDS011;42191;47.562;9.686;2023-05-10T09:03:43;42.47;;;38.35;;
56285;SDS011;42191;47.562;9.686;2023-05-10T09:06:11;48.22;;;43.50;;
56285;SDS011;42191;47.562;9.686;2023-05-10T09:08:38;37.63;;;34.88;;
56285;SDS011;42191;47.562;9.686;2023-05-10T09:11:06;46.80;;;42.67;;
56285;SDS011;42191;47.562;9.686;2023-05-10T09:13:34;45.30;;;41.22;;
56285;SDS011;42191;47.562;9.686;2023-05-10T09:16:01;40.00;;;36.83;;
56285;SDS011;42191;47.562;9.686;2023-05-10T09:18:28;37.10;;;34.50;;
56285;SDS011;42191;47.562;9.686;2023-05-10T09:20:54;35.55;;;33.10;;
56285;SDS011;42191;47.562;9.686;2023-05-10T09:23:20;36.30;;;33.95;;
56285;SDS011;42191;47.562;9.686;2023-05-10T09:25:46;33.35;;;31.35;;
56285;SDS011;42191;47.562;9.686;2023-05-10T09:28:12;34.42;;;32.38;;
56285;SDS011;42191;47.562;9.686;2023-05-10T09:30:38;32.70;;;30.60;;
56285;SDS011;42191;47.562;9.686;2023-05-10T09:33:05;32.78;;;30.77;;
56285;SDS011;42191;47.562;9.686;2023-05-10T09:35:32;33.33;;;31.33;;
56285;SDS011;42191;47.562;9.686;2023-05-10T09:38:04;34.05;;;31.98;;
56285;SDS011;42191;47.562;9.686;2023-05-10T09:40:31;32.42;;;30.35;;
56285;SDS011;42191;47.562;9.686;2023-05-10T09:45:30;34.83;;;32.75;;
56285;SDS011;42191;47.562;9.686;2023-05-10T09:47:58;34.60;;;32.40;;
56285;SDS011;42191;47.562;9.686;2023-05-10T09:50:26;31.58;;;29.65;;
56285;SDS011;42191;47.562;9.686;2023-05-10T09:55:41;33.38;;;31.38;;
56285;SDS011;42191;47.562;9.686;2023-05-10T10:00:38;35.17;;;33.08;;
56285;SDS011;42191;47.562;9.686;2023-05-10T10:03:06;33.22;;;31.25;;
56285;SDS011;42191;47.562;9.686;2023-05-10T10:05:39;33.33;;;31.35;;
56285;SDS011;42191;47.562;9.686;2023-05-10T10:08:07;34.45;;;32.45;;
56285;SDS011;42191;47.562;9.686;2023-05-10T10:10:33;32.10;;;30.15;;
56285;SDS011;42191;47.562;9.686;2023-05-10T10:13:01;33.67;;;31.63;;
56285;SDS011;42191;47.562;9.686;2023-05-10T10:15:27;33.03;;;30.83;;
56285;SDS011;42191;47.562;9.686;2023-05-10T10:17:53;32.40;;;30.20;;
56285;SDS011;42191;47.562;9.686;2023-05-10T10:20:20;32.13;;;30.15;;
56285;SDS011;42191;47.562;9.686;2023-05-10T10:22:47;32.15;;;30.25;;
56285;SDS011;42191;47.562;9.686;2023-05-10T10:25:17;31.70;;;29.80;;
56285;SDS011;42191;47.562;9.686;2023-05-10T10:36:22;34.55;;;32.38;;
56285;SDS011;42191;47.562;9.686;2023-05-10T10:49:48;32.92;;;30.83;;
56285;SDS011;42191;47.562;9.686;2023-05-10T10:52:30;35.85;;;33.28;;
56285;SDS011;42191;47.562;9.686;2023-05-10T10:55:01;35.58;;;33.38;;
56285;SDS011;42191;47.562;9.686;2023-05-10T11:00:19;33.17;;;31.17;;
56285;SDS011;42191;47.562;9.686;2023-05-10T11:02:47;31.65;;;29.83;;
56285;SDS011;42191;47.562;9.686;2023-05-10T11:08:01;32.33;;;30.38;;
56285;SDS011;42191;47.562;9.686;2023-05-10T11:10:34;32.35;;;30.45;;
56285;SDS011;42191;47.562;9.686;2023-05-10T11:13:01;32.88;;;30.98;;
56285;SDS011;42191;47.562;9.686;2023-05-10T11:15:31;32.13;;;30.23;;
56285;SDS011;42191;47.562;9.686;2023-05-10T11:17:58;33.50;;;31.40;;
56285;SDS011;42191;47.562;9.686;2023-05-10T11:20:28;30.90;;;29.08;;
56285;SDS011;42191;47.562;9.686;2023-05-10T11:23:13;32.00;;;30.02;;
56285;SDS011;42191;47.562;9.686;2023-05-10T11:25:43;33.10;;;31.00;;
56285;SDS011;42191;47.562;9.686;2023-05-10T11:28:12;32.60;;;30.02;;
56285;SDS011;42191;47.562;9.686;2023-05-10T11:30:39;52.15;;;45.53;;
56285;SDS011;42191;47.562;9.686;2023-05-10T11:33:06;36.92;;;34.13;;
56285;SDS011;42191;47.562;9.686;2023-05-10T11:35:37;36.25;;;33.75;;
56285;SDS011;42191;47.562;9.686;2023-05-10T11:40:36;42.65;;;38.70;;
56285;SDS011;42191;47.562;9.686;2023-05-10T11:43:03;42.90;;;39.22;;
56285;SDS011;42191;47.562;9.686;2023-05-10T11:45:33;39.10;;;35.90;;
56285;SDS011;42191;47.562;9.686;2023-05-10T11:48:00;45.65;;;41.65;;
56285;SDS011;42191;47.562;9.686;2023-05-10T11:50:27;60.67;;;53.85;;
56285;SDS011;42191;47.562;9.686;2023-05-10T11:52:54;41.95;;;38.55;;
56285;SDS011;42191;47.562;9.686;2023-05-10T11:55:21;44.70;;;40.38;;
56285;SDS011;42191;47.562;9.686;2023-05-10T11:57:51;44.65;;;40.25;;
56285;SDS011;42191;47.562;9.686;2023-05-10T12:00:24;44.15;;;39.80;;
56285;SDS011;42191;47.562;9.686;2023-05-10T12:02:51;40.15;;;36.22;;
56285;SDS011;42191;47.562;9.686;2023-05-10T12:05:17;39.08;;;35.83;;
56285;SDS011;42191;47.562;9.686;2023-05-10T12:07:43;41.65;;;38.10;;
56285;SDS011;42191;47.562;9.686;2023-05-10T12:10:10;43.25;;;39.38;;
56285;SDS011;42191;47.562;9.686;2023-05-10T12:12:41;42.53;;;38.67;;
56285;SDS011;42191;47.562;9.686;2023-05-10T12:17:46;42.33;;;38.80;;
56285;SDS011;42191;47.562;9.686;2023-05-10T12:20:22;41.55;;;38.25;;
56285;SDS011;42191;47.562;9.686;2023-05-10T12:22:56;34.70;;;32.30;;
56285;SDS011;42191;47.562;9.686;2023-05-10T12:25:23;33.88;;;31.67;;
56285;SDS011;42191;47.562;9.686;2023-05-10T12:27:55;35.85;;;33.60;;
56285;SDS011;42191;47.562;9.686;2023-05-10T12:30:26;43.33;;;40.15;;
56285;SDS011;42191;47.562;9.686;2023-05-10T12:32:54;41.35;;;38.45;;
56285;SDS011;42191;47.562;9.686;2023-05-10T12:35:31;34.35;;;32.15;;
56285;SDS011;42191;47.562;9.686;2023-05-10T12:37:57;34.83;;;32.50;;
56285;SDS011;42191;47.562;9.686;2023-05-10T12:40:24;32.53;;;30.33;;
56285;SDS011;42191;47.562;9.686;2023-05-10T12:42:50;33.90;;;31.75;;
56285;SDS011;42191;47.562;9.686;2023-05-10T12:45:17;32.53;;;30.52;;
56285;SDS011;42191;47.562;9.686;2023-05-10T12:47:44;31.55;;;29.52;;
56285;SDS011;42191;47.562;9.686;2023-05-10T12:50:10;34.42;;;32.13;;
56285;SDS011;42191;47.562;9.686;2023-05-10T12:52:36;37.33;;;34.78;;
56285;SDS011;42191;47.562;9.686;2023-05-10T12:55:02;34.67;;;32.47;;
56285;SDS011;42191;47.562;9.686;2023-05-10T12:57:28;34.20;;;32.10;;
56285;SDS011;42191;47.562;9.686;2023-05-10T12:59:55;32.22;;;30.20;;
56285;SDS011;42191;47.562;9.686;2023-05-10T13:02:21;32.50;;;30.50;;
56285;SDS011;42191;47.562;9.686;2023-05-10T13:04:48;34.13;;;32.03;;
56285;SDS011;42191;47.562;9.686;2023-05-10T13:07:14;34.65;;;32.55;;
56285;SDS011;42191;47.562;9.686;2023-05-10T13:09:40;33.28;;;31.13;;
56285;SDS011;42191;47.562;9.686;2023-05-10T13:12:06;32.17;;;30.27;;
56285;SDS011;42191;47.562;9.686;2023-05-10T13:14:33;31.70;;;29.60;;
56285;SDS011;42191;47.562;9.686;2023-05-10T13:16:59;31.98;;;29.98;;
56285;SDS011;42191;47.562;9.686;2023-05-10T13:19:25;32.25;;;30.05;;
56285;SDS011;42191;47.562;9.686;2023-05-10T13:21:51;33.78;;;31.58;;
56285;SDS011;42191;47.562;9.686;2023-05-10T13:24:17;35.17;;;32.80;;
56285;SDS011;42191;47.562;9.686;2023-05-10T13:26:44;37.10;;;34.60;;
56285;SDS011;42191;47.562;9.686;2023-05-10T13:29:10;36.70;;;34.30;;
56285;SDS011;42191;47.562;9.686;2023-05-10T13:31:36;31.33;;;29.40;;
56285;SDS011;42191;47.562;9.686;2023-05-10T13:34:03;32.17;;;30.27;;
56285;SDS011;42191;47.562;9.686;2023-05-10T13:36:30;31.95;;;29.95;;
56285;SDS011;42191;47.562;9.686;2023-05-10T13:38:56;32.95;;;30.95;;
56285;SDS011;42191;47.562;9.686;2023-05-10T13:41:22;32.17;;;30.15;;
56285;SDS011;42191;47.562;9.686;2023-05-10T13:43:48;31.02;;;29.23;;
56285;SDS011;42191;47.562;9.686;2023-05-10T13:46:15;31.38;;;29.45;;
56285;SDS011;42191;47.562;9.686;2023-05-10T13:48:41;31.70;;;29.75;;
56285;SDS011;42191;47.562;9.686;2023-05-10T13:51:07;32.10;;;30.20;;
56285;SDS011;42191;47.562;9.686;2023-05-10T13:53:33;30.13;;;28.35;;
56285;SDS011;42191;47.562;9.686;2023-05-10T13:55:59;31.15;;;29.23;;
56285;SDS011;42191;47.562;9.686;2023-05-10T13:58:25;30.25;;;28.45;;
56285;SDS011;42191;47.562;9.686;2023-05-10T14:00:51;31.27;;;29.38;;
56285;SDS011;42191;47.562;9.686;2023-05-10T14:03:17;32.15;;;30.15;;
56285;SDS011;42191;47.562;9.686;2023-05-10T14:05:43;30.25;;;28.45;;
56285;SDS011;42191;47.562;9.686;2023-05-10T14:08:10;31.65;;;29.73;;
56285;SDS011;42191;47.562;9.686;2023-05-10T14:10:38;30.58;;;28.77;;
56285;SDS011;42191;47.562;9.686;2023-05-10T14:13:04;30.92;;;29.02;;
56285;SDS011;42191;47.562;9.686;2023-05-10T14:15:31;33.45;;;31.45;;
56285;SDS011;42191;47.562;9.686;2023-05-10T14:17:57;31.08;;;29.27;;
56285;SDS011;42191;47.562;9.686;2023-05-10T14:20:23;32.22;;;30.33;;
56285;SDS011;42191;47.562;9.686;2023-05-10T14:22:49;32.47;;;30.58;;
56285;SDS011;42191;47.562;9.686;2023-05-10T14:25:15;30.25;;;28.45;;
56285;SDS011;42191;47.562;9.686;2023-05-10T14:27:42;31.15;;;29.25;;
56285;SDS011;42191;47.562;9.686;2023-05-10T14:30:08;31.55;;;29.70;;
56285;SDS011;42191;47.562;9.686;2023-05-10T14:32:34;31.00;;;29.20;;
56285;SDS011;42191;47.562;9.686;2023-05-10T14:35:01;32.22;;;29.88;;
56285;SDS011;42191;47.562;9.686;2023-05-10T14:37:28;32.42;;;30.52;;
56285;SDS011;42191;47.562;9.686;2023-05-10T14:39:54;31.90;;;30.02;;
56285;SDS011;42191;47.562;9.686;2023-05-10T14:42:20;33.28;;;31.17;;
56285;SDS011;42191;47.562;9.686;2023-05-10T14:44:46;31.48;;;29.67;;
56285;SDS011;42191;47.562;9.686;2023-05-10T14:47:12;32.08;;;30.08;;
56285;SDS011;42191;47.562;9.686;2023-05-10T14:49:39;31.70;;;29.80;;
56285;SDS011;42191;47.562;9.686;2023-05-10T14:52:05;31.98;;;30.08;;
56285;SDS011;42191;47.562;9.686;2023-05-10T14:54:32;32.15;;;30.25;;
56285;SDS011;42191;47.562;9.686;2023-05-10T14:56:58;31.42;;;29.52;;
56285;SDS011;42191;47.562;9.686;2023-05-10T14:59:25;33.47;;;31.58;;
56285;SDS011;42191;47.562;9.686;2023-05-10T15:01:51;31.40;;;29.40;;
56285;SDS011;42191;47.562;9.686;2023-05-10T15:04:17;31.45;;;29.55;;
56285;SDS011;42191;47.562;9.686;2023-05-10T15:06:43;32.38;;;30.42;;
56285;SDS011;42191;47.562;9.686;2023-05-10T15:09:10;31.48;;;29.45;;
56285;SDS011;42191;47.562;9.686;2023-05-10T15:11:36;32.15;;;30.20;;
56285;SDS011;42191;47.562;9.686;2023-05-10T15:14:02;31.40;;;29.60;;
56285;SDS011;42191;47.562;9.686;2023-05-10T15:16:28;32.25;;;30.25;;
56285;SDS011;42191;47.562;9.686;2023-05-10T15:18:54;31.48;;;29.58;;
56285;SDS011;42191;47.562;9.686;2023-05-10T15:21:20;31.95;;;30.05;;